Time;durP1;ratioP1;P1;durP2;ratioP2;P2;SDS_P1;SDS_P2;PMS_P1;PMS_P2;Temp;Humidity;BMP_temperature;BMP_pressure;BME280_temperature;BME280_humidity;BME280_pressure;Samples;Min_cycle;Max_cycle;Signal;HPM_P1;HPM_P2
2022/05/29 00:00:46;;;;;;;1.85;1.40;;;;;;;12.42;nan;98438.19;4990695;28;20588;-66
2022/05/29 00:03:13;;;;;;;2.05;1.40;;;;;;;12.37;nan;98447.75;4988212;28;20432;-66
2022/05/29 00:05:40;;;;;;;3.42;1.30;;;;;;;12.30;nan;98431.69;4991303;28;20030;-66
2022/05/29 00:08:07;;;;;;;2.05;1.05;;;;;;;12.21;nan;98437.09;4993921;28;20030;-64
2022/05/29 00:10:36;;;;;;;3.10;1.35;;;;;;;12.22;nan;98436.19;4991276;28;20026;-65
2022/05/29 00:13:02;;;;;;;3.50;1.27;;;;;;;12.16;nan;98425.25;4992811;28;20022;-64
2022/05/29 00:15:27;;;;;;;3.67;1.15;;;;;;;12.15;nan;98433.81;4992983;28;20115;-66
2022/05/29 00:17:53;;;;;;;2.72;1.00;;;;;;;12.08;nan;98415.19;4992759;28;20045;-67
2022/05/29 00:20:18;;;;;;;2.67;1.40;;;;;;;12.05;nan;98417.00;4992068;28;20124;-66
2022/05/29 00:22:44;;;;;;;1.50;1.15;;;;;;;11.93;nan;98436.16;4992764;28;20026;-66
2022/05/29 00:25:10;;;;;;;4.60;1.38;;;;;;;11.71;nan;98417.06;4991846;28;20571;-70
2022/05/29 00:27:36;;;;;;;2.45;1.02;;;;;;;11.49;nan;98409.09;4992403;28;20050;-66
2022/05/29 00:30:04;;;;;;;2.28;1.30;;;;;;;11.53;nan;98423.53;4992259;28;20065;-65
2022/05/29 00:32:29;;;;;;;3.13;2.80;;;;;;;11.33;nan;98424.00;4990665;28;20045;-65
2022/05/29 00:34:55;;;;;;;2.88;1.35;;;;;;;11.25;nan;98418.22;4995737;28;20034;-65
2022/05/29 00:37:20;;;;;;;2.35;0.73;;;;;;;11.13;nan;98418.53;4995417;28;20041;-65
2022/05/29 00:39:49;;;;;;;3.60;1.77;;;;;;;11.11;nan;98414.34;4992122;28;20038;-65
2022/05/29 00:42:18;;;;;;;2.50;1.08;;;;;;;10.98;nan;98414.66;4992869;28;20029;-65
2022/05/29 00:44:43;;;;;;;2.40;1.38;;;;;;;11.03;nan;98413.69;4995389;28;20041;-66
2022/05/29 00:47:23;;;;;;;1.20;1.10;;;;;;;10.87;nan;98392.69;4992646;28;20038;-64
2022/05/29 00:49:50;;;;;;;0.87;0.87;;;;;;;10.76;nan;98408.34;4992329;28;20088;-66
2022/05/29 00:52:30;;;;;;;2.92;1.05;;;;;;;10.61;nan;98408.66;4994400;28;20034;-65
2022/05/29 00:55:00;;;;;;;3.47;1.23;;;;;;;10.64;nan;98418.88;4997287;28;20049;-66
2022/05/29 00:57:30;;;;;;;1.77;1.20;;;;;;;10.59;nan;98412.16;4992048;28;20030;-64
2022/05/29 00:59:59;;;;;;;1.10;1.08;;;;;;;10.42;nan;98404.84;4991750;28;20037;-66
2022/05/29 01:02:25;;;;;;;1.08;0.90;;;;;;;10.36;nan;98415.22;4994472;28;20049;-63
2022/05/29 01:04:50;;;;;;;4.03;1.30;;;;;;;10.28;nan;98417.94;4995146;28;20034;-65
2022/05/29 01:07:19;;;;;;;1.73;1.00;;;;;;;10.19;nan;98412.16;4991396;28;20056;-69
2022/05/29 01:09:47;;;;;;;0.80;0.80;;;;;;;10.08;nan;98407.25;4991576;28;20152;-66
2022/05/29 01:12:31;;;;;;;1.37;0.97;;;;;;;10.09;nan;98407.22;4991286;28;20069;-65
2022/05/29 01:15:19;;;;;;;3.97;1.17;;;;;;;10.04;nan;98409.03;4991884;28;20049;-66
2022/05/29 01:18:26;;;;;;;1.33;1.23;;;;;;;10.01;nan;98398.00;4991476;28;20048;-66
2022/05/29 01:21:18;;;;;;;3.50;1.35;;;;;;;10.01;nan;98395.44;4944174;28;20051;-65
2022/05/29 01:24:25;;;;;;;1.83;1.20;;;;;;;9.95;nan;98404.09;4943811;28;20031;-66
2022/05/29 01:27:13;;;;;;;2.13;1.53;;;;;;;9.89;nan;98404.19;4934178;28;20059;-65
2022/05/29 01:29:41;;;;;;;1.47;1.37;;;;;;;9.81;nan;98405.22;4933061;28;20356;-66
2022/05/29 01:32:14;;;;;;;3.37;1.57;;;;;;;9.69;nan;98401.19;4940467;28;20209;-65
2022/05/29 01:34:47;;;;;;;1.63;1.30;;;;;;;9.50;nan;98376.84;4937879;28;20123;-65
2022/05/29 01:37:21;;;;;;;3.57;1.50;;;;;;;9.45;nan;98381.19;4940003;28;20106;-65
2022/05/29 01:40:13;;;;;;;2.30;1.30;;;;;;;9.54;nan;98392.09;4942643;28;20067;-65
2022/05/29 01:42:50;;;;;;;1.70;1.60;;;;;;;9.51;nan;98404.94;4942552;28;20224;-64
2022/05/29 01:45:33;;;;;;;2.20;1.60;;;;;;;9.46;nan;98400.78;4938331;28;20039;-65
2022/05/29 01:48:11;;;;;;;0.90;0.90;;;;;;;9.40;nan;98393.22;4941414;28;20106;-65
2022/05/29 01:50:54;;;;;;;2.10;1.43;;;;;;;9.40;nan;98386.38;4939050;28;20082;-65
2022/05/29 01:53:30;;;;;;;2.73;1.30;;;;;;;9.39;nan;98397.50;4937942;28;20047;-65
2022/05/29 01:56:01;;;;;;;1.63;1.10;;;;;;;9.35;nan;98379.66;4939923;28;20063;-65
2022/05/29 01:58:36;;;;;;;2.37;1.10;;;;;;;9.32;nan;98387.41;4979076;28;20049;-66
2022/05/29 02:01:04;;;;;;;0.93;0.93;;;;;;;9.20;nan;98356.94;4993415;28;20026;-64
2022/05/29 02:03:51;;;;;;;1.97;1.20;;;;;;;9.24;nan;98374.75;4990266;28;20038;-65
2022/05/29 02:07:47;;;;;;;2.03;1.20;;;;;;;9.16;nan;98364.63;4992706;28;20477;-66
2022/05/29 02:09:20;;;;;;;1.27;1.00;;;;;;;9.07;nan;98348.63;4992511;28;20050;-64
2022/05/29 02:11:49;;;;;;;5.47;1.13;;;;;;;9.11;nan;98353.66;4992393;28;20549;-65
2022/05/29 02:14:20;;;;;;;1.90;1.03;;;;;;;9.12;nan;98370.66;4990033;28;20030;-65
2022/05/29 02:16:47;;;;;;;2.63;1.00;;;;;;;8.97;nan;98357.31;4992785;28;20049;-65
2022/05/29 02:19:28;;;;;;;1.07;0.97;;;;;;;8.97;nan;98353.06;4993337;28;20065;-66
2022/05/29 02:22:13;;;;;;;2.93;0.90;;;;;;;8.91;nan;98339.53;4991370;28;20041;-63
2022/05/29 02:24:43;;;;;;;1.15;1.05;;;;;;;8.93;nan;98348.00;4989183;28;20026;-61
2022/05/29 02:27:42;;;;;;;1.90;1.33;;;;;;;8.88;nan;98347.25;4992629;28;20224;-62
2022/05/29 02:30:08;;;;;;;0.93;0.90;;;;;;;8.85;nan;98345.59;4991766;28;20536;-61
2022/05/29 02:33:09;;;;;;;2.87;1.20;;;;;;;8.81;nan;98341.41;4988322;28;20030;-61
2022/05/29 02:35:41;;;;;;;1.27;1.10;;;;;;;8.79;nan;98344.84;4991898;28;20042;-61
2022/05/29 02:38:46;;;;;;;1.27;1.00;;;;;;;8.76;nan;98345.75;4994470;28;20613;-61
2022/05/29 02:41:23;;;;;;;1.90;0.90;;;;;;;8.80;nan;98344.81;4989917;28;20041;-63
2022/05/29 02:44:08;;;;;;;4.47;1.00;;;;;;;8.66;nan;98332.25;4990704;28;20406;-62
2022/05/29 02:47:20;;;;;;;1.10;1.00;;;;;;;8.69;nan;98346.72;4988915;28;20468;-63
2022/05/29 02:50:01;;;;;;;1.87;0.90;;;;;;;8.60;nan;98339.19;4988841;28;20052;-62
2022/05/29 02:52:26;;;;;;;2.20;0.80;;;;;;;8.57;nan;98329.03;4993820;28;20026;-62
2022/05/29 02:54:52;;;;;;;3.63;1.23;;;;;;;8.63;nan;98334.88;5004583;28;20539;-63
2022/05/29 02:57:17;;;;;;;2.73;0.80;;;;;;;8.74;nan;98339.84;4988941;28;20034;-63
2022/05/29 02:59:48;;;;;;;2.90;1.23;;;;;;;8.75;nan;98333.81;4993912;28;20044;-62
2022/05/29 03:02:35;;;;;;;1.50;1.10;;;;;;;8.87;nan;98337.91;4991640;28;20026;-62
2022/05/29 03:05:07;;;;;;;1.10;1.10;;;;;;;8.83;nan;98323.47;4989288;28;20757;-61
2022/05/29 03:07:39;;;;;;;3.00;1.30;;;;;;;8.89;nan;98331.91;4991876;28;20065;-61
2022/05/29 03:10:14;;;;;;;1.83;1.20;;;;;;;8.91;nan;98330.13;4992399;28;20451;-63
2022/05/29 03:13:08;;;;;;;1.13;1.10;;;;;;;8.98;nan;98325.78;4991129;28;20041;-63
2022/05/29 03:15:40;;;;;;;2.20;1.87;;;;;;;8.96;nan;98323.25;4988785;28;20042;-60
2022/05/29 03:18:24;;;;;;;1.47;1.17;;;;;;;8.99;nan;98325.75;4993396;28;20050;-61
2022/05/29 03:21:03;;;;;;;1.37;1.10;;;;;;;9.03;nan;98318.88;4992761;28;20595;-60
2022/05/29 03:23:54;;;;;;;2.67;1.10;;;;;;;9.03;nan;98314.59;4989649;28;20030;-62
2022/05/29 03:26:45;;;;;;;2.47;1.20;;;;;;;9.04;nan;98313.72;4991011;28;20054;-59
2022/05/29 03:29:23;;;;;;;3.37;1.77;;;;;;;9.16;nan;98317.78;4993965;28;20029;-61
2022/05/29 03:31:49;;;;;;;2.57;1.23;;;;;;;9.13;nan;98307.59;4990936;28;20038;-63
2022/05/29 03:34:15;;;;;;;1.53;1.23;;;;;;;9.30;nan;98320.06;4988078;28;20030;-62
2022/05/29 03:36:46;;;;;;;1.90;0.97;;;;;;;9.29;nan;98306.47;4992257;28;20485;-62
2022/05/29 03:39:11;;;;;;;2.00;1.07;;;;;;;9.22;nan;98288.66;4993551;28;20049;-65
2022/05/29 03:41:45;;;;;;;1.30;1.00;;;;;;;9.29;nan;98306.47;4988612;28;20034;-63
2022/05/29 03:44:15;;;;;;;2.83;1.57;;;;;;;9.40;nan;98313.91;4988438;28;20033;-62
2022/05/29 03:46:42;;;;;;;1.73;1.23;;;;;;;9.35;nan;98311.44;4990125;28;20073;-60
2022/05/29 03:49:09;;;;;;;1.30;1.20;;;;;;;9.34;nan;98308.91;5005463;28;20041;-63
2022/05/29 03:51:35;;;;;;;2.10;1.27;;;;;;;9.42;nan;98319.84;4986419;28;20518;-62
2022/05/29 03:54:03;;;;;;;4.73;1.13;;;;;;;9.41;nan;98323.28;4986586;28;20444;-63
2022/05/29 03:56:28;;;;;;;1.23;1.13;;;;;;;9.47;nan;98325.69;4990014;28;20092;-61
2022/05/29 03:58:54;;;;;;;0.97;0.90;;;;;;;9.49;nan;98321.41;4985902;28;20032;-61
2022/05/29 04:01:20;;;;;;;2.90;1.53;;;;;;;9.55;nan;98316.16;4987033;28;20037;-61
2022/05/29 04:03:45;;;;;;;1.33;1.10;;;;;;;9.62;nan;98323.69;4990746;28;20042;-62
2022/05/29 04:06:11;;;;;;;1.60;1.20;;;;;;;9.61;nan;98316.03;4992296;28;20041;-61
2022/05/29 04:14:06;;;;;;;2.20;1.17;;;;;;;9.68;nan;98311.63;4990943;28;20542;-61
2022/05/29 04:16:31;;;;;;;1.67;0.93;;;;;;;9.64;nan;98304.03;4992578;28;20081;-61
2022/05/29 04:18:57;;;;;;;1.90;0.90;;;;;;;9.71;nan;98317.56;4989287;28;20932;-61
2022/05/29 04:21:22;;;;;;;2.53;1.00;;;;;;;9.71;nan;98314.16;4988813;28;20592;-61
2022/05/29 04:23:48;;;;;;;1.30;0.87;;;;;;;9.63;nan;98299.78;4991701;28;20029;-63
2022/05/29 04:26:14;;;;;;;2.73;1.30;;;;;;;9.68;nan;98320.16;4993154;28;20492;-63
2022/05/29 04:28:40;;;;;;;3.03;1.10;;;;;;;9.69;nan;98321.84;4989853;28;20111;-61
2022/05/29 04:31:06;;;;;;;3.03;1.87;;;;;;;9.76;nan;98320.03;4987619;28;20456;-62
2022/05/29 04:33:32;;;;;;;1.73;1.27;;;;;;;9.63;nan;98309.19;4993003;28;20316;-62
2022/05/29 04:35:57;;;;;;;2.00;1.23;;;;;;;9.54;nan;98288.91;4993145;28;20375;-62
2022/05/29 04:38:24;;;;;;;1.30;1.20;;;;;;;9.72;nan;98308.97;4987530;28;20030;-62
2022/05/29 04:40:50;;;;;;;1.37;1.27;;;;;;;9.72;nan;98316.66;4988499;28;20519;-61
2022/05/29 04:43:16;;;;;;;1.50;1.10;;;;;;;9.81;nan;98313.91;4992139;28;20408;-62
2022/05/29 04:45:43;;;;;;;1.63;1.10;;;;;;;9.93;nan;98308.53;4991770;28;20057;-62
2022/05/29 04:48:10;;;;;;;1.23;1.10;;;;;;;9.97;nan;98301.63;4994914;28;20042;-62
2022/05/29 04:50:36;;;;;;;1.60;1.10;;;;;;;10.14;nan;98309.78;4987342;28;20040;-62
2022/05/29 04:53:02;;;;;;;1.27;1.07;;;;;;;10.13;nan;98291.88;4988462;28;20034;-62
2022/05/29 04:55:28;;;;;;;2.97;1.10;;;;;;;10.30;nan;98289.81;4992741;28;20034;-61
2022/05/29 04:57:53;;;;;;;1.63;0.90;;;;;;;10.39;nan;98289.59;4991799;28;20038;-62
2022/05/29 05:00:19;;;;;;;2.10;0.90;;;;;;;10.62;nan;98299.28;4992218;28;20484;-63
2022/05/29 05:02:45;;;;;;;5.90;1.33;;;;;;;10.78;nan;98309.13;4993728;28;20036;-62
2022/05/29 05:05:12;;;;;;;2.78;1.10;;;;;;;10.93;nan;98287.38;4991507;28;20029;-62
2022/05/29 05:07:39;;;;;;;1.20;1.10;;;;;;;11.08;nan;98301.53;4990972;28;20124;-62
2022/05/29 05:10:11;;;;;;;0.87;0.83;;;;;;;11.16;nan;98307.31;4993902;28;20026;-61
2022/05/29 05:12:40;;;;;;;1.02;0.98;;;;;;;11.09;nan;98288.66;4994898;28;20100;-62
2022/05/29 05:15:07;;;;;;;2.70;1.20;;;;;;;11.33;nan;98307.72;4991387;28;20080;-62
2022/05/29 05:17:33;;;;;;;1.55;1.00;;;;;;;11.36;nan;98284.53;4990934;28;20042;-62
2022/05/29 05:19:58;;;;;;;2.03;1.10;;;;;;;11.38;nan;98285.31;4991519;28;20487;-63
2022/05/29 05:22:24;;;;;;;4.32;1.13;;;;;;;11.61;nan;98280.38;4990998;28;20037;-63
2022/05/29 05:24:49;;;;;;;1.38;1.08;;;;;;;11.83;nan;98285.75;4976318;28;20029;-63
2022/05/29 05:27:15;;;;;;;1.88;1.25;;;;;;;11.94;nan;98272.59;4990581;28;20050;-62
2022/05/29 05:29:41;;;;;;;1.20;1.20;;;;;;;12.22;nan;98276.81;4991539;28;20041;-63
2022/05/29 05:32:07;;;;;;;1.50;1.05;;;;;;;12.52;nan;98280.16;4993217;28;20153;-62
2022/05/29 05:34:33;;;;;;;1.60;1.48;;;;;;;12.65;nan;98273.72;4992824;28;20034;-62
2022/05/29 05:36:58;;;;;;;1.63;1.52;;;;;;;12.87;nan;98275.56;4990672;28;20026;-61
2022/05/29 05:39:24;;;;;;;3.30;1.63;;;;;;;13.03;nan;98274.16;4993472;28;20271;-62
2022/05/29 05:41:50;;;;;;;3.13;1.50;;;;;;;13.22;nan;98272.66;4994028;28;20073;-63
2022/05/29 05:44:16;;;;;;;2.38;1.80;;;;;;;13.43;nan;98269.31;4990891;28;20518;-61
2022/05/29 05:46:46;;;;;;;2.88;1.65;;;;;;;13.69;nan;98266.63;4991782;28;20571;-63
2022/05/29 05:49:12;;;;;;;2.28;1.75;;;;;;;13.66;nan;98251.28;4996180;28;20117;-63
2022/05/29 05:51:38;;;;;;;3.72;2.00;;;;;;;13.75;nan;98269.88;4994508;28;20029;-61
2022/05/29 05:54:03;;;;;;;3.03;1.85;;;;;;;13.74;nan;98251.00;4990873;28;20471;-61
2022/05/29 05:56:29;;;;;;;2.30;1.90;;;;;;;13.89;nan;98253.00;4993675;28;20066;-63
2022/05/29 05:58:55;;;;;;;1.98;1.85;;;;;;;13.98;nan;98267.25;4994091;28;20038;-62
2022/05/29 06:01:20;;;;;;;2.03;1.92;;;;;;;13.84;nan;98264.38;4994333;28;20034;-61
2022/05/29 06:03:46;;;;;;;2.15;1.98;;;;;;;14.01;nan;98257.66;4991067;28;20030;-61
2022/05/29 06:06:12;;;;;;;2.58;2.30;;;;;;;14.14;nan;98256.28;4991552;28;20038;-61
2022/05/29 06:08:37;;;;;;;3.50;2.45;;;;;;;14.35;nan;98264.06;4993441;28;20472;-61
2022/05/29 06:11:03;;;;;;;3.58;2.42;;;;;;;14.43;nan;98264.63;4992369;28;20106;-61
2022/05/29 06:13:28;;;;;;;3.83;2.40;;;;;;;14.66;nan;98271.47;4990104;28;20033;-64
2022/05/29 06:15:54;;;;;;;4.88;2.30;;;;;;;14.45;nan;98270.59;4992733;28;20067;-62
2022/05/29 06:18:19;;;;;;;3.40;2.13;;;;;;;14.62;nan;98266.44;4994917;28;20030;-62
2022/05/29 06:20:46;;;;;;;3.15;2.13;;;;;;;14.79;nan;98264.88;4991907;28;20035;-61
2022/05/29 06:23:13;;;;;;;4.25;2.60;;;;;;;14.98;nan;98252.88;4991828;28;20077;-61
2022/05/29 06:25:40;;;;;;;7.78;2.10;;;;;;;15.33;nan;98256.50;4993908;28;20033;-63
2022/05/29 06:28:05;;;;;;;1.65;1.55;;;;;;;15.51;nan;98255.72;4994599;28;20058;-62
2022/05/29 06:30:31;;;;;;;1.90;1.77;;;;;;;16.03;nan;98254.19;4992145;28;20045;-62
2022/05/29 06:32:57;;;;;;;2.97;1.70;;;;;;;16.50;nan;98233.81;4989930;28;20114;-61
2022/05/29 06:35:23;;;;;;;3.15;1.75;;;;;;;16.44;nan;98237.53;4993803;28;20476;-62
2022/05/29 06:37:48;;;;;;;2.78;1.60;;;;;;;16.50;nan;98238.16;4995068;28;20057;-63
2022/05/29 06:40:14;;;;;;;4.18;1.70;;;;;;;16.47;nan;98249.47;4992728;28;20065;-63
2022/05/29 06:42:41;;;;;;;2.47;2.00;;;;;;;16.51;nan;98237.25;4991112;28;20053;-70
2022/05/29 06:45:08;;;;;;;1.52;1.42;;;;;;;16.39;nan;98236.91;4996654;28;20041;-62
2022/05/29 06:47:35;;;;;;;1.98;1.88;;;;;;;16.71;nan;98237.13;4993507;28;20057;-67
2022/05/29 06:50:02;;;;;;;1.80;1.70;;;;;;;16.95;nan;98232.44;5001002;28;20088;-62
2022/05/29 06:52:31;;;;;;;2.55;1.60;;;;;;;17.03;nan;98225.94;4991730;28;20045;-63
2022/05/29 06:54:56;;;;;;;2.75;2.00;;;;;;;17.04;nan;98219.03;4992324;28;20054;-63
2022/05/29 06:57:37;;;;;;;2.70;1.50;;;;;;;17.20;nan;98222.50;4992648;28;20485;-63
2022/05/29 07:08:59;;;;;;;3.42;1.40;;;;;;;17.42;nan;98219.63;4920994;29;20028;-63
2022/05/29 07:11:27;;;;;;;2.55;1.90;;;;;;;17.55;nan;98213.69;4906797;29;20074;-62
2022/05/29 07:13:54;;;;;;;2.50;2.40;;;;;;;17.69;nan;98225.97;4923518;29;20039;-62
2022/05/29 07:16:20;;;;;;;4.18;1.48;;;;;;;17.52;nan;98216.47;4923572;29;20134;-62
2022/05/29 07:18:48;;;;;;;1.48;1.38;;;;;;;17.46;nan;98213.34;4922025;29;20031;-61
2022/05/29 07:21:13;;;;;;;4.22;1.63;;;;;;;17.21;nan;98209.47;4920235;29;20603;-62
2022/05/29 07:23:39;;;;;;;2.80;1.98;;;;;;;17.38;nan;98208.56;4921281;29;20047;-63
2022/05/29 07:26:04;;;;;;;2.20;1.42;;;;;;;17.27;nan;98211.72;4923099;29;20490;-62
2022/05/29 07:28:30;;;;;;;2.78;1.85;;;;;;;17.20;nan;98209.53;4919937;29;20056;-62
2022/05/29 07:30:55;;;;;;;3.83;2.05;;;;;;;17.18;nan;98226.94;4904279;29;20044;-61
2022/05/29 07:33:23;;;;;;;3.13;1.88;;;;;;;17.12;nan;98212.53;4921695;29;20035;-62
2022/05/29 07:35:48;;;;;;;2.38;1.70;;;;;;;16.94;nan;98236.78;4919956;29;20481;-62
2022/05/29 07:38:14;;;;;;;3.75;2.20;;;;;;;16.68;nan;98235.50;4920685;29;20039;-62
2022/05/29 07:40:40;;;;;;;3.28;1.90;;;;;;;16.59;nan;98248.09;4921454;29;20058;-62
2022/05/29 07:46:27;;;;;;;2.95;1.33;;;;;;;16.39;nan;98228.31;4988491;28;20073;-64
2022/05/29 07:52:27;;;;;;;1.88;1.70;;;;;;;16.79;nan;98245.34;4991972;28;20508;-66
2022/05/29 07:54:52;;;;;;;2.25;2.13;;;;;;;16.70;nan;98245.78;4989530;28;20069;-68
2022/05/29 08:00:40;;;;;;;4.82;1.73;;;;;;;17.08;nan;98243.84;4993801;28;20053;-63
2022/05/29 08:03:06;;;;;;;5.22;2.58;;;;;;;17.21;nan;98231.94;5008683;28;20034;-63
2022/05/29 08:05:35;;;;;;;3.78;2.45;;;;;;;17.10;nan;98244.63;4989472;28;20038;-63
2022/05/29 08:08:04;;;;;;;5.47;2.20;;;;;;;17.23;nan;98240.47;5000726;28;20033;-63
2022/05/29 08:10:32;;;;;;;3.22;2.13;;;;;;;17.42;nan;98223.03;4989988;28;20030;-62
2022/05/29 08:12:58;;;;;;;1.50;1.40;;;;;;;17.54;nan;98237.94;4988199;28;20088;-62
2022/05/29 08:15:23;;;;;;;7.93;4.78;;;;;;;17.60;nan;98227.28;4988405;28;20037;-63
2022/05/29 08:17:49;;;;;;;4.57;3.20;;;;;;;17.77;nan;98231.56;4990973;28;20053;-63
2022/05/29 08:20:16;;;;;;;3.20;2.30;;;;;;;17.74;nan;98222.16;4988889;28;20036;-62
2022/05/29 08:22:42;;;;;;;2.67;2.47;;;;;;;17.79;nan;98227.94;4990516;28;20034;-63
2022/05/29 08:30:43;;;;;;;2.35;2.17;;;;;;;18.03;nan;98222.34;4996350;28;20121;-64
2022/05/29 08:33:09;;;;;;;5.40;2.67;;;;;;;18.12;nan;98227.84;4995293;28;20027;-63
2022/05/29 08:35:36;;;;;;;2.30;2.13;;;;;;;18.09;nan;98203.84;4996440;28;20053;-63
2022/05/29 08:38:03;;;;;;;3.22;2.92;;;;;;;18.40;nan;98202.94;4998814;28;20029;-63
2022/05/29 08:40:30;;;;;;;5.13;3.95;;;;;;;18.60;nan;98197.47;4996586;28;20041;-63
2022/05/29 08:42:56;;;;;;;2.35;1.90;;;;;;;18.29;nan;98187.97;4992673;28;20060;-63
2022/05/29 08:45:22;;;;;;;2.85;2.13;;;;;;;18.53;nan;98183.16;4992728;28;20477;-62
2022/05/29 08:47:49;;;;;;;4.63;3.95;;;;;;;18.80;nan;98191.91;4993581;28;20037;-62
2022/05/29 08:50:22;;;;;;;2.58;2.30;;;;;;;18.60;nan;98182.72;4990222;28;20034;-62
2022/05/29 08:53:13;;;;;;;2.33;2.03;;;;;;;18.75;nan;98181.00;4991131;28;20121;-63
2022/05/29 08:55:49;;;;;;;4.22;2.30;;;;;;;19.13;nan;98174.34;4993410;28;20046;-62
2022/05/29 08:58:26;;;;;;;2.28;2.05;;;;;;;19.25;nan;98170.16;4996103;28;20128;-63
2022/05/29 09:01:10;;;;;;;5.75;2.65;;;;;;;19.38;nan;98173.66;4992755;28;20033;-58
2022/05/29 09:03:53;;;;;;;5.72;2.05;;;;;;;19.13;nan;98183.91;4991482;28;20671;-62
2022/05/29 09:06:18;;;;;;;2.10;1.90;;;;;;;18.84;nan;98183.03;4993875;28;20110;-59
2022/05/29 09:08:53;;;;;;;2.47;1.98;;;;;;;18.31;nan;98198.28;4991749;28;20042;-66
2022/05/29 09:11:25;;;;;;;1.92;1.83;;;;;;;18.06;nan;98194.47;4993573;28;20029;-60
2022/05/29 09:13:56;;;;;;;2.13;1.90;;;;;;;18.01;nan;98183.50;4996810;28;20403;-64
2022/05/29 09:16:25;;;;;;;2.72;2.50;;;;;;;17.90;nan;98179.84;4993729;28;20044;-62
2022/05/29 09:19:08;;;;;;;2.45;2.30;;;;;;;17.97;nan;98191.56;4993719;28;20041;-68
2022/05/29 09:22:02;;;;;;;2.08;1.90;;;;;;;17.76;nan;98191.81;4992052;28;20034;-65
2022/05/29 09:24:46;;;;;;;2.30;1.70;;;;;;;17.75;nan;98197.91;4994316;28;20573;-66
2022/05/29 09:27:13;;;;;;;1.80;1.70;;;;;;;17.42;nan;98191.09;4996593;28;20666;-67
2022/05/29 09:29:38;;;;;;;3.58;2.05;;;;;;;17.27;nan;98192.78;4990857;28;20027;-66
2022/05/29 09:32:05;;;;;;;2.38;2.17;;;;;;;17.27;nan;98174.63;4992644;28;20112;-67
2022/05/29 09:34:31;;;;;;;2.08;1.70;;;;;;;17.13;nan;98175.34;4995554;28;20112;-66
2022/05/29 09:36:57;;;;;;;1.75;1.48;;;;;;;17.04;nan;98183.59;4994713;28;20519;-67
2022/05/29 09:39:41;;;;;;;2.08;1.85;;;;;;;16.89;nan;98185.22;4989802;28;20030;-66
2022/05/29 09:42:20;;;;;;;2.50;1.67;;;;;;;16.79;nan;98189.22;4992126;28;20637;-67
2022/05/29 09:45:12;;;;;;;2.80;1.98;;;;;;;16.73;nan;98186.09;4990780;28;20033;-67
2022/05/29 09:50:39;;;;;;;2.00;1.60;;;;;;;16.90;nan;98183.47;4991129;28;20112;-66
2022/05/29 09:53:10;;;;;;;2.55;1.95;;;;;;;17.04;nan;98178.44;4995134;28;20065;-67
2022/05/29 09:55:37;;;;;;;3.00;1.35;;;;;;;17.01;nan;98178.59;4993442;28;20026;-66
2022/05/29 09:58:14;;;;;;;2.15;1.30;;;;;;;17.18;nan;98180.28;4991682;28;20034;-66
2022/05/29 10:01:02;;;;;;;3.15;1.90;;;;;;;17.05;nan;98174.09;4991119;28;20123;-67
2022/05/29 10:03:49;;;;;;;1.90;1.80;;;;;;;17.34;nan;98183.75;4995314;28;20094;-67
2022/05/29 10:06:42;;;;;;;2.13;1.88;;;;;;;17.46;nan;98185.69;4992147;28;20034;-67
2022/05/29 10:09:14;;;;;;;2.67;1.77;;;;;;;17.76;nan;98184.03;4991331;28;20052;-67
2022/05/29 10:11:43;;;;;;;3.35;2.10;;;;;;;17.90;nan;98185.03;4993335;28;20037;-66
2022/05/29 10:14:24;;;;;;;4.78;2.03;;;;;;;18.15;nan;98181.00;4992143;28;20042;-67
2022/05/29 10:16:51;;;;;;;5.55;1.95;;;;;;;18.22;nan;98171.09;5004323;28;20034;-66
2022/05/29 10:19:42;;;;;;;2.88;1.90;;;;;;;18.44;nan;98176.72;4991786;28;20081;-66
2022/05/29 10:22:20;;;;;;;2.85;2.30;;;;;;;18.61;nan;98179.19;4986065;28;20092;-66
2022/05/29 10:24:45;;;;;;;3.63;2.75;;;;;;;18.66;nan;98177.19;4991262;28;20130;-66
2022/05/29 10:27:31;;;;;;;3.72;2.88;;;;;;;18.75;nan;98186.19;4993039;28;20225;-66
2022/05/29 10:30:06;;;;;;;2.67;2.08;;;;;;;18.73;nan;98172.44;4993959;28;20084;-67
2022/05/29 10:32:36;;;;;;;2.05;1.88;;;;;;;18.55;nan;98169.16;4995294;28;20029;-66
2022/05/29 10:35:30;;;;;;;2.90;2.70;;;;;;;18.77;nan;98180.88;4992356;28;20039;-68
2022/05/29 10:37:56;;;;;;;3.38;2.30;;;;;;;18.60;nan;98179.28;4986976;28;20045;-65
2022/05/29 10:40:28;;;;;;;2.45;2.25;;;;;;;18.65;nan;98193.69;4993326;28;20141;-66
2022/05/29 10:42:59;;;;;;;2.35;1.95;;;;;;;18.35;nan;98184.19;4990515;28;20162;-66
2022/05/29 10:45:28;;;;;;;4.53;2.00;;;;;;;18.31;nan;98178.34;4989568;28;20456;-66
2022/05/29 10:48:01;;;;;;;3.92;1.88;;;;;;;18.16;nan;98181.81;4992740;28;20037;-67
2022/05/29 10:50:38;;;;;;;3.60;1.70;;;;;;;18.17;nan;98184.31;4991974;28;20088;-67
2022/05/29 10:53:20;;;;;;;6.35;2.67;;;;;;;18.31;nan;98188.72;4990750;28;20544;-68
2022/05/29 10:56:21;;;;;;;1.98;1.88;;;;;;;17.74;nan;98175.50;4990536;28;20034;-67
2022/05/29 10:59:28;;;;;;;7.22;6.28;;;;;;;17.73;nan;98181.63;4994297;28;20046;-67
2022/05/29 11:05:32;;;;;;;3.08;2.20;;;;;;;17.77;nan;98183.13;4990701;28;20087;-67
2022/05/29 11:08:19;;;;;;;2.47;2.28;;;;;;;17.93;nan;98180.50;4994421;28;20041;-66
2022/05/29 11:11:22;;;;;;;4.05;2.30;;;;;;;17.98;nan;98182.84;4992671;28;20429;-67
2022/05/29 11:14:25;;;;;;;3.45;2.47;;;;;;;18.01;nan;98187.88;4989189;28;20045;-66
2022/05/29 11:17:05;;;;;;;14.60;6.32;;;;;;;17.76;nan;98188.38;4993434;28;20046;-66
2022/05/29 11:19:58;;;;;;;8.18;5.55;;;;;;;17.71;nan;98193.81;4993492;28;20092;-66
2022/05/29 11:22:42;;;;;;;3.83;2.80;;;;;;;17.34;nan;98187.19;4988889;28;20041;-67
2022/05/29 11:25:40;;;;;;;7.93;3.13;;;;;;;17.11;nan;98184.94;4993130;28;20038;-66
2022/05/29 11:28:27;;;;;;;4.28;3.95;;;;;;;16.37;nan;98187.00;4966147;28;20125;-66
2022/05/29 11:30:58;;;;;;;2.40;2.20;;;;;;;15.33;nan;98197.94;4963298;28;20316;-66
2022/05/29 11:34:08;;;;;;;2.88;2.67;;;;;;;15.21;nan;98203.66;4961608;28;20042;-67
2022/05/29 11:37:11;;;;;;;6.60;2.72;;;;;;;14.73;nan;98203.19;4967351;28;20042;-66
2022/05/29 11:40:01;;;;;;;2.58;2.05;;;;;;;14.48;nan;98204.22;4961285;28;20125;-66
2022/05/29 11:42:34;;;;;;;3.70;3.25;;;;;;;14.35;nan;98207.34;4961524;28;20287;-68
2022/05/29 11:45:11;;;;;;;2.72;2.30;;;;;;;14.10;nan;98192.88;4961409;28;20864;-66
2022/05/29 11:53:34;;;;;;;5.57;3.70;;;;;;;13.65;nan;98195.53;4964847;28;20165;-67
2022/05/29 11:56:05;;;;;;;3.70;3.28;;;;;;;13.42;nan;98189.53;4965637;28;20122;-66
2022/05/29 11:58:39;;;;;;;4.45;3.60;;;;;;;13.36;nan;98182.91;4962452;28;20062;-66
2022/05/29 12:01:13;;;;;;;5.30;2.80;;;;;;;13.43;nan;98189.50;4944884;28;20174;-67
2022/05/29 12:03:57;;;;;;;4.75;3.28;;;;;;;13.36;nan;98198.34;4967695;28;20678;-66
2022/05/29 12:06:35;;;;;;;4.85;3.15;;;;;;;13.29;nan;98178.88;4989676;28;20030;-65
2022/05/29 12:09:03;;;;;;;3.22;2.90;;;;;;;13.27;nan;98181.50;4993307;28;20025;-66
2022/05/29 12:11:47;;;;;;;3.42;3.10;;;;;;;13.57;nan;98179.53;4993962;28;20087;-66
2022/05/29 12:14:34;;;;;;;5.32;2.97;;;;;;;13.60;nan;98174.25;4998326;28;20026;-66
2022/05/29 12:17:13;;;;;;;5.95;4.57;;;;;;;13.90;nan;98158.47;4995774;28;20038;-66
2022/05/29 12:19:44;;;;;;;6.15;2.83;;;;;;;14.00;nan;98162.38;4994519;28;20125;-66
2022/05/29 12:22:11;;;;;;;5.10;2.90;;;;;;;14.10;nan;98163.66;4994666;28;20123;-66
2022/05/29 12:24:45;;;;;;;4.93;2.92;;;;;;;14.11;nan;98165.34;4996943;28;20033;-66
2022/05/29 12:27:15;;;;;;;7.50;3.53;;;;;;;13.94;nan;98178.06;4994684;28;20054;-66
2022/05/29 12:30:02;;;;;;;7.18;2.80;;;;;;;13.76;nan;98173.63;4993522;28;20037;-67
2022/05/29 12:32:31;;;;;;;4.07;2.92;;;;;;;13.67;nan;98161.97;4993334;28;20731;-67
2022/05/29 12:35:01;;;;;;;2.70;2.50;;;;;;;13.78;nan;98151.25;4990705;28;20034;-65
2022/05/29 12:37:42;;;;;;;2.60;2.40;;;;;;;13.79;nan;98164.06;4993195;28;20061;-65
2022/05/29 12:40:24;;;;;;;7.57;2.60;;;;;;;13.79;nan;98151.16;4992160;28;20554;-66
2022/05/29 12:43:23;;;;;;;5.63;3.28;;;;;;;13.79;nan;98160.66;4994594;28;20087;-65
2022/05/29 12:46:03;;;;;;;16.17;6.53;;;;;;;13.86;nan;98162.09;4991776;28;20126;-66
2022/05/29 12:48:32;;;;;;;23.35;10.35;;;;;;;14.11;nan;98173.09;4992627;28;20502;-66
2022/05/29 12:51:20;;;;;;;17.90;9.10;;;;;;;14.08;nan;98176.66;4992332;28;20174;-66
2022/05/29 12:54:05;;;;;;;44.88;20.13;;;;;;;13.88;nan;98171.41;4991790;28;20560;-67
2022/05/29 12:56:53;;;;;;;6.60;3.55;;;;;;;13.73;nan;98182.34;4991619;28;20117;-66
2022/05/29 12:59:36;;;;;;;31.65;14.00;;;;;;;13.70;nan;98178.16;4991643;28;20045;-66
2022/05/29 13:02:07;;;;;;;26.13;11.88;;;;;;;13.45;nan;98171.44;4992266;28;20137;-66